createdAt,value
2023-05-05T00:01:28.694Z,18.05
2023-05-05T00:03:56.219Z,18.05
2023-05-05T00:06:23.381Z,18.00
2023-05-05T00:08:54.643Z,17.83
2023-05-05T00:11:21.735Z,18.00
2023-05-05T00:13:48.975Z,18.01
2023-05-05T00:16:21.585Z,17.98
2023-05-05T00:18:52.927Z,17.92
2023-05-05T00:21:20.436Z,17.77
2023-05-05T00:23:50.278Z,17.88
2023-05-05T00:26:17.417Z,17.87
2023-05-05T00:28:44.712Z,17.86
2023-05-05T00:31:12.013Z,17.88
2023-05-05T00:33:39.024Z,17.89
2023-05-05T00:36:06.586Z,17.81
2023-05-05T00:38:34.706Z,17.81
2023-05-05T00:41:01.865Z,17.78
2023-05-05T00:43:30.038Z,17.58
2023-05-05T00:46:24.004Z,17.30
2023-05-05T00:48:52.644Z,17.18
2023-05-05T00:51:21.434Z,17.52
2023-05-05T00:53:49.400Z,17.45
2023-05-05T00:56:20.200Z,17.32
2023-05-05T00:58:48.285Z,17.29
2023-05-05T01:01:19.038Z,17.26
2023-05-05T01:03:51.455Z,17.26
2023-05-05T01:06:56.908Z,17.18
2023-05-05T01:09:25.936Z,17.16
2023-05-05T01:12:08.371Z,17.14
2023-05-05T01:14:47.836Z,17.06
2023-05-05T01:17:20.273Z,17.10
2023-05-05T01:19:55.873Z,17.05
2023-05-05T01:22:38.689Z,17.00
2023-05-05T01:25:23.981Z,16.94
2023-05-05T01:28:05.799Z,16.91
2023-05-05T01:31:04.662Z,16.85
2023-05-05T01:33:41.698Z,16.84
2023-05-05T01:36:13.713Z,16.82
2023-05-05T01:38:46.655Z,16.90
2023-05-05T01:41:18.577Z,16.73
2023-05-05T01:43:57.529Z,16.82
2023-05-05T01:46:27.773Z,16.90
2023-05-05T01:48:57.105Z,16.87
2023-05-05T01:51:29.231Z,16.79
2023-05-05T01:54:01.841Z,16.77
2023-05-05T01:56:32.236Z,16.71
2023-05-05T01:59:08.773Z,16.29
2023-05-05T02:01:44.983Z,16.57
2023-05-05T02:04:16.130Z,16.39
2023-05-05T02:06:44.975Z,16.39
2023-05-05T02:09:17.336Z,16.45
2023-05-05T02:11:47.157Z,16.45
2023-05-05T02:14:17.731Z,16.31
2023-05-05T02:16:46.606Z,16.30
2023-05-05T02:19:15.144Z,16.17
2023-05-05T02:21:42.597Z,16.09
2023-05-05T02:24:09.834Z,16.08
2023-05-05T02:26:44.482Z,16.08
2023-05-05T02:29:19.302Z,15.93
2023-05-05T02:31:51.215Z,15.81
2023-05-05T02:34:32.475Z,15.86
2023-05-05T02:37:06.198Z,15.78
2023-05-05T02:39:59.148Z,15.72
2023-05-05T02:42:36.069Z,15.64
2023-05-05T02:45:13.520Z,15.59
2023-05-05T02:47:40.753Z,15.52
2023-05-05T02:50:09.505Z,15.42
2023-05-05T02:52:39.480Z,15.41
2023-05-05T02:55:12.906Z,15.34
2023-05-05T02:58:05.250Z,15.26
2023-05-05T03:00:34.489Z,15.23
2023-05-05T03:03:07.890Z,15.19
2023-05-05T03:05:46.053Z,15.15
2023-05-05T03:08:40.588Z,15.08
2023-05-05T03:11:14.401Z,15.04
2023-05-05T03:13:44.252Z,14.87
2023-05-05T03:16:16.198Z,14.96
2023-05-05T03:18:45.461Z,14.89
2023-05-05T03:21:13.672Z,14.88
2023-05-05T03:23:43.823Z,14.81
2023-05-05T03:26:10.808Z,14.72
2023-05-05T03:28:40.858Z,14.78
2023-05-05T03:31:13.730Z,14.65
2023-05-05T03:33:43.360Z,14.66
2023-05-05T03:36:18.607Z,14.57
2023-05-05T03:38:48.577Z,14.52
2023-05-05T03:41:18.346Z,13.64
2023-05-05T03:43:47.663Z,14.36
2023-05-05T03:46:19.519Z,14.54
2023-05-05T03:48:46.746Z,14.51
2023-05-05T03:51:13.860Z,14.49
2023-05-05T03:53:46.835Z,14.45
2023-05-05T03:56:18.245Z,14.22
2023-05-05T03:58:46.340Z,14.40
2023-05-05T04:01:13.240Z,14.22
2023-05-05T04:03:40.347Z,14.25
2023-05-05T04:06:07.698Z,14.21
2023-05-05T04:08:36.870Z,14.20
2023-05-05T04:11:06.760Z,14.16
2023-05-05T04:13:39.438Z,14.22
2023-05-05T04:16:09.951Z,14.18
2023-05-05T04:18:39.593Z,14.12
2023-05-05T04:21:12.717Z,14.20
2023-05-05T04:23:39.716Z,14.27
2023-05-05T04:26:06.981Z,14.23
2023-05-05T04:28:35.654Z,14.31
2023-05-05T04:31:05.403Z,14.39
2023-05-05T04:33:32.465Z,14.43
2023-05-05T04:36:00.590Z,13.78
2023-05-05T04:38:28.036Z,14.12
2023-05-05T04:40:55.014Z,14.43
2023-05-05T04:43:25.124Z,14.57
2023-05-05T04:45:56.133Z,14.60
2023-05-05T04:48:23.768Z,14.68
2023-05-05T04:50:52.057Z,14.72
2023-05-05T04:53:24.526Z,14.90
2023-05-05T04:55:54.164Z,14.92
2023-05-05T04:58:21.235Z,15.16
2023-05-05T05:00:48.748Z,15.28
2023-05-05T05:03:17.229Z,15.41
2023-05-05T05:05:44.486Z,16.20
2023-05-05T05:08:11.764Z,17.38
2023-05-05T05:10:42.699Z,18.25
2023-05-05T05:13:20.664Z,19.84
2023-05-05T05:15:49.995Z,20.20
2023-05-05T05:18:24.736Z,21.08
2023-05-05T05:20:59.460Z,21.88
2023-05-05T05:23:28.684Z,22.62
2023-05-05T05:25:57.988Z,23.06
2023-05-05T05:28:28.259Z,22.92
2023-05-05T05:30:55.787Z,23.48
2023-05-05T05:33:22.698Z,23.69
2023-05-05T05:35:49.685Z,24.63
2023-05-05T05:38:18.063Z,26.49
2023-05-05T05:40:45.096Z,27.32
2023-05-05T05:43:11.950Z,27.89
2023-05-05T05:45:53.497Z,28.35
2023-05-05T05:48:21.548Z,28.99
2023-05-05T05:50:51.823Z,29.40
2023-05-05T05:53:21.921Z,30.01
2023-05-05T05:55:51.393Z,31.28
2023-05-05T05:58:23.271Z,32.06
2023-05-05T06:00:51.366Z,32.60
2023-05-05T06:03:18.670Z,33.06
2023-05-05T06:05:46.922Z,33.28
2023-05-05T06:08:16.695Z,33.57
2023-05-05T06:10:48.495Z,33.78
2023-05-05T06:13:18.022Z,33.52
2023-05-05T06:15:45.090Z,33.34
2023-05-05T06:18:12.741Z,34.14
2023-05-05T06:20:43.699Z,34.46
2023-05-05T06:23:11.449Z,34.56
2023-05-05T06:25:42.688Z,34.73
2023-05-05T06:28:14.636Z,34.87
2023-05-05T06:30:41.854Z,34.54
2023-05-05T06:33:13.862Z,33.97
2023-05-05T06:35:41.140Z,33.92
2023-05-05T06:38:10.331Z,33.44
2023-05-05T06:40:46.134Z,31.76
2023-05-05T06:43:17.780Z,30.91
2023-05-05T06:45:50.705Z,31.23
2023-05-05T06:48:27.446Z,31.66
2023-05-05T06:50:56.977Z,32.03
2023-05-05T06:53:28.620Z,32.14
2023-05-05T06:55:56.113Z,33.70
2023-05-05T06:58:26.174Z,34.53
2023-05-05T07:00:55.228Z,35.78
2023-05-05T07:03:25.739Z,36.37
2023-05-05T07:05:55.529Z,36.70
2023-05-05T07:08:22.490Z,36.86
2023-05-05T07:10:50.062Z,36.87
2023-05-05T07:13:20.465Z,36.68
2023-05-05T07:15:52.331Z,36.95
2023-05-05T07:18:21.512Z,37.34
2023-05-05T07:20:49.391Z,37.39
2023-05-05T07:23:16.431Z,37.79
2023-05-05T07:25:45.804Z,38.20
2023-05-05T07:28:12.770Z,38.50
2023-05-05T07:30:39.683Z,38.57
2023-05-05T07:33:11.572Z,38.50
2023-05-05T07:35:40.551Z,38.24
2023-05-05T07:38:08.684Z,38.58
2023-05-05T07:40:39.029Z,36.11
2023-05-05T07:43:08.759Z,33.75
2023-05-05T07:45:37.621Z,32.95
2023-05-05T07:48:04.496Z,31.29
2023-05-05T07:50:31.455Z,29.68
2023-05-05T07:53:10.519Z,28.85
2023-05-05T07:55:44.265Z,28.40
2023-05-05T07:58:11.998Z,28.90
2023-05-05T08:00:44.130Z,29.34
2023-05-05T08:03:12.123Z,29.24
2023-05-05T08:05:39.713Z,29.49
2023-05-05T08:08:07.285Z,29.06
2023-05-05T08:10:34.234Z,28.44
2023-05-05T08:13:01.553Z,29.95
2023-05-05T08:15:28.264Z,28.81
2023-05-05T08:17:56.861Z,28.59
2023-05-05T08:20:28.827Z,28.70
2023-05-05T08:22:55.652Z,29.76
2023-05-05T08:25:22.345Z,30.36
2023-05-05T08:27:51.559Z,29.40
2023-05-05T08:30:20.884Z,28.54
2023-05-05T08:32:47.651Z,27.94
2023-05-05T08:35:14.349Z,27.76
2023-05-05T08:37:41.174Z,27.37
2023-05-05T08:40:11.934Z,27.07
2023-05-05T08:42:39.987Z,26.83
2023-05-05T08:45:11.083Z,26.82
2023-05-05T08:47:39.033Z,26.57
2023-05-05T08:50:13.683Z,26.25
2023-05-05T08:52:44.546Z,26.01
2023-05-05T08:55:21.589Z,25.65
2023-05-05T08:57:53.332Z,25.44
2023-05-05T09:00:20.916Z,25.15
2023-05-05T09:02:48.102Z,24.75
2023-05-05T09:05:15.464Z,24.69
2023-05-05T09:07:43.806Z,24.57
2023-05-05T09:10:11.815Z,24.40
2023-05-05T09:12:44.355Z,24.12
2023-05-05T09:15:17.245Z,24.46
2023-05-05T09:17:45.575Z,24.43
2023-05-05T09:20:13.946Z,24.17
2023-05-05T09:22:43.238Z,24.36
2023-05-05T09:25:12.992Z,24.51
2023-05-05T09:27:45.841Z,24.61
2023-05-05T09:30:16.842Z,24.82
2023-05-05T09:32:49.700Z,24.77
2023-05-05T09:35:17.460Z,24.92
2023-05-05T09:37:44.880Z,25.02
2023-05-05T09:40:13.816Z,25.20
2023-05-05T09:42:44.400Z,25.13
2023-05-05T09:45:20.357Z,25.23
2023-05-05T09:47:48.226Z,24.98
2023-05-05T09:50:18.614Z,25.03
2023-05-05T09:53:15.059Z,25.04
2023-05-05T09:55:42.059Z,24.87
2023-05-05T09:58:23.528Z,24.81
2023-05-05T10:00:53.395Z,24.85
2023-05-05T10:03:20.060Z,24.77
2023-05-05T10:05:47.919Z,24.74
2023-05-05T10:08:14.792Z,24.73
2023-05-05T10:10:52.547Z,24.46
2023-05-05T10:13:23.324Z,24.59
2023-05-05T10:15:53.895Z,24.46
2023-05-05T10:18:25.060Z,24.40
2023-05-05T10:21:02.606Z,24.27
2023-05-05T10:23:39.373Z,24.18
2023-05-05T10:26:07.728Z,24.01
2023-05-05T10:29:05.856Z,23.83
2023-05-05T10:31:54.417Z,23.46
2023-05-05T10:34:29.713Z,23.28
2023-05-05T10:37:00.241Z,23.05
2023-05-05T10:39:28.121Z,22.85
2023-05-05T10:41:59.989Z,22.58
2023-05-05T10:44:33.547Z,22.38
2023-05-05T10:47:01.954Z,22.20
2023-05-05T10:49:49.263Z,22.10
2023-05-05T10:52:18.868Z,21.75
2023-05-05T10:55:01.300Z,21.18
2023-05-05T10:57:32.339Z,20.52
2023-05-05T10:59:59.050Z,20.07
2023-05-05T11:02:30.100Z,19.57
2023-05-05T11:05:09.771Z,19.30
2023-05-05T11:07:37.800Z,19.06
2023-05-05T11:10:11.410Z,18.86
2023-05-05T11:13:00.293Z,18.67
2023-05-05T11:15:29.990Z,18.50
2023-05-05T11:18:07.428Z,18.36
2023-05-05T11:20:44.506Z,18.42
2023-05-05T11:23:11.057Z,18.40
2023-05-05T11:25:38.151Z,18.41
2023-05-05T11:28:14.941Z,18.38
2023-05-05T11:30:57.487Z,18.30
2023-05-05T11:33:31.681Z,18.31
2023-05-05T11:36:06.802Z,18.30
2023-05-05T11:39:05.527Z,18.28
2023-05-05T11:41:32.267Z,18.19
2023-05-05T11:44:20.795Z,18.10
2023-05-05T11:46:55.704Z,17.98
2023-05-05T11:49:29.663Z,17.87
2023-05-05T11:52:04.358Z,17.87
2023-05-05T11:54:31.712Z,17.80
2023-05-05T11:57:01.933Z,17.81
2023-05-05T11:59:28.551Z,17.83
2023-05-05T12:01:55.290Z,17.87
2023-05-05T12:04:24.634Z,17.97
2023-05-05T12:06:51.781Z,17.96
2023-05-05T12:09:20.319Z,18.33
2023-05-05T12:11:57.090Z,18.52
2023-05-05T12:14:25.906Z,18.63
2023-05-05T12:17:01.910Z,18.67
2023-05-05T12:19:33.412Z,18.58
2023-05-05T12:22:01.413Z,18.48
2023-05-05T12:24:28.545Z,18.39
2023-05-05T12:26:56.120Z,18.43
2023-05-05T12:29:28.893Z,18.42
2023-05-05T12:32:00.803Z,18.39
2023-05-05T12:34:27.724Z,18.32
2023-05-05T12:36:54.870Z,18.33
2023-05-05T12:39:21.782Z,18.27
2023-05-05T12:41:48.583Z,18.12
2023-05-05T12:44:15.157Z,18.04
2023-05-05T12:46:46.099Z,18.02
2023-05-05T12:49:15.552Z,17.98
2023-05-05T12:51:56.562Z,17.95
2023-05-05T12:54:29.627Z,17.89
2023-05-05T12:56:58.828Z,17.92
2023-05-05T12:59:25.472Z,17.92
2023-05-05T13:01:52.815Z,17.89
2023-05-05T13:04:25.386Z,17.98
2023-05-05T13:07:12.597Z,17.69
2023-05-05T13:09:42.052Z,17.86
2023-05-05T13:12:14.031Z,17.78
2023-05-05T13:14:41.581Z,17.64
2023-05-05T13:17:11.844Z,17.58
2023-05-05T13:19:42.614Z,17.45
2023-05-05T13:22:13.115Z,17.35
2023-05-05T13:24:50.977Z,17.30
2023-05-05T13:27:19.935Z,17.21
2023-05-05T13:29:46.790Z,17.04
2023-05-05T13:32:15.936Z,16.95
2023-05-05T13:34:44.418Z,16.84
2023-05-05T13:37:11.070Z,16.79
2023-05-05T13:39:40.210Z,16.72
2023-05-05T13:42:09.020Z,16.70
2023-05-05T13:44:35.758Z,16.71
2023-05-05T13:47:04.937Z,16.71
2023-05-05T13:49:31.522Z,16.75
2023-05-05T13:52:00.263Z,16.80
2023-05-05T13:54:30.038Z,16.84
2023-05-05T13:56:57.921Z,16.91
2023-05-05T13:59:25.798Z,16.97
2023-05-05T14:01:52.492Z,16.99
2023-05-05T14:04:19.175Z,17.10
2023-05-05T14:06:45.899Z,17.14
2023-05-05T14:09:13.764Z,17.12
2023-05-05T14:11:41.338Z,17.14
2023-05-05T14:14:08.267Z,17.15
2023-05-05T14:16:37.268Z,17.23
2023-05-05T14:19:04.060Z,17.28
2023-05-05T14:21:35.847Z,17.33
2023-05-05T14:24:02.478Z,17.27
2023-05-05T14:26:29.300Z,17.38
2023-05-05T14:28:56.237Z,17.42
2023-05-05T14:31:23.193Z,17.39
2023-05-05T14:33:49.916Z,17.36
2023-05-05T14:36:16.559Z,17.49
2023-05-05T14:38:45.700Z,17.59
2023-05-05T14:41:13.301Z,17.48
2023-05-05T14:43:40.761Z,17.49
2023-05-05T14:46:07.660Z,17.69
2023-05-05T14:48:34.718Z,17.74
2023-05-05T14:51:02.456Z,17.87
2023-05-05T14:53:29.079Z,18.14
2023-05-05T14:55:56.634Z,18.37
2023-05-05T14:58:24.809Z,18.50
2023-05-05T15:00:53.025Z,18.55
2023-05-05T15:03:19.700Z,18.50
2023-05-05T15:05:46.495Z,18.38
2023-05-05T15:08:14.596Z,18.30
2023-05-05T15:10:43.868Z,18.19
2023-05-05T15:13:13.140Z,18.22
2023-05-05T15:15:39.958Z,18.33
2023-05-05T15:18:07.067Z,18.45
2023-05-05T15:20:33.967Z,18.52
2023-05-05T15:23:01.518Z,18.31
2023-05-05T15:25:30.402Z,18.36
2023-05-05T15:28:00.955Z,18.59
2023-05-05T15:30:29.956Z,18.73
2023-05-05T15:32:58.810Z,18.67
2023-05-05T15:35:25.688Z,18.72
2023-05-05T15:37:54.504Z,18.82
2023-05-05T15:40:25.945Z,18.81
2023-05-05T15:42:52.686Z,18.75
2023-05-05T15:45:19.876Z,18.62
2023-05-05T15:47:46.815Z,18.47
2023-05-05T15:50:14.404Z,18.55
2023-05-05T15:52:41.756Z,18.62
2023-05-05T15:55:09.421Z,18.73
2023-05-05T15:57:36.419Z,18.77
2023-05-05T16:00:03.343Z,18.82
2023-05-05T16:02:30.159Z,18.81
2023-05-05T16:04:56.979Z,18.69
2023-05-05T16:07:23.547Z,18.63
2023-05-05T16:09:50.172Z,18.66
2023-05-05T16:12:16.762Z,18.71
2023-05-05T16:14:43.717Z,18.53
2023-05-05T16:17:13.354Z,18.48
2023-05-05T16:19:39.940Z,18.44
2023-05-05T16:22:09.286Z,18.39
2023-05-05T16:24:35.933Z,18.23
2023-05-05T16:27:04.778Z,18.12
2023-05-05T16:29:31.895Z,18.03
2023-05-05T16:32:00.994Z,18.06
2023-05-05T16:34:27.922Z,18.19
2023-05-05T16:36:57.006Z,18.43
2023-05-05T16:39:23.565Z,18.62
2023-05-05T16:41:50.260Z,18.71
2023-05-05T16:44:16.843Z,18.58
2023-05-05T16:46:43.616Z,18.66
2023-05-05T16:49:10.201Z,18.70
2023-05-05T16:51:36.782Z,18.76
2023-05-05T16:54:05.804Z,18.81
2023-05-05T16:56:32.522Z,18.73
2023-05-05T16:58:59.100Z,18.59
2023-05-05T17:01:25.784Z,18.50
2023-05-05T17:03:52.581Z,18.36
2023-05-05T17:06:19.393Z,18.21
2023-05-05T17:08:48.710Z,18.11
2023-05-05T17:11:15.580Z,17.96
2023-05-05T17:13:42.222Z,17.79
2023-05-05T17:16:08.913Z,17.74
2023-05-05T17:18:35.539Z,17.67
2023-05-05T17:21:03.905Z,17.61
2023-05-05T17:23:33.044Z,17.58
2023-05-05T17:25:59.697Z,17.50
2023-05-05T17:28:26.508Z,17.46
2023-05-05T17:30:53.369Z,17.52
2023-05-05T17:33:22.430Z,17.42
2023-05-05T17:35:49.090Z,17.47
2023-05-05T17:38:18.495Z,17.44
2023-05-05T17:40:48.148Z,17.35
2023-05-05T17:43:16.821Z,17.32
2023-05-05T17:45:46.826Z,17.31
2023-05-05T17:48:13.404Z,17.30
2023-05-05T17:50:42.657Z,17.17
2023-05-05T17:53:10.727Z,17.23
2023-05-05T17:55:39.489Z,17.13
2023-05-05T17:58:06.117Z,17.21
2023-05-05T18:00:35.814Z,17.20
2023-05-05T18:03:02.490Z,17.15
2023-05-05T18:05:30.849Z,17.08
2023-05-05T18:07:57.557Z,17.07
2023-05-05T18:10:26.749Z,17.04
2023-05-05T18:12:53.494Z,17.08
2023-05-05T18:15:20.388Z,17.06
2023-05-05T18:17:47.582Z,17.05
2023-05-05T18:20:14.188Z,16.96
2023-05-05T18:22:40.910Z,16.95
2023-05-05T18:25:08.728Z,16.97
2023-05-05T18:27:40.174Z,16.95
2023-05-05T18:30:09.410Z,16.96
2023-05-05T18:32:40.882Z,16.87
2023-05-05T18:35:10.533Z,16.86
2023-05-05T18:37:37.343Z,16.80
2023-05-05T18:40:04.462Z,16.76
2023-05-05T18:42:31.193Z,16.69
2023-05-05T18:44:57.912Z,16.63
2023-05-05T18:47:24.546Z,16.59
2023-05-05T18:49:51.553Z,16.53
2023-05-05T18:52:18.418Z,16.43
2023-05-05T18:54:47.532Z,16.34
2023-05-05T18:57:14.152Z,16.32
2023-05-05T18:59:40.854Z,16.24
2023-05-05T19:02:07.960Z,16.19
2023-05-05T19:04:37.473Z,16.12
2023-05-05T19:07:05.097Z,16.03
2023-05-05T19:09:31.764Z,15.97
2023-05-05T19:11:58.371Z,15.70
2023-05-05T19:14:25.616Z,15.80
2023-05-05T19:16:52.625Z,15.71
2023-05-05T19:19:19.403Z,15.70
2023-05-05T19:21:45.992Z,15.58
2023-05-05T19:24:12.702Z,15.53
2023-05-05T19:26:39.773Z,15.47
2023-05-05T19:29:06.570Z,15.40
2023-05-05T19:31:33.249Z,15.33
2023-05-05T19:34:04.810Z,15.30
2023-05-05T19:36:32.476Z,15.22
2023-05-05T19:39:06.066Z,15.18
2023-05-05T19:41:35.286Z,15.09
2023-05-05T19:44:02.152Z,15.06
2023-05-05T19:46:29.233Z,14.99
2023-05-05T19:48:56.047Z,14.70
2023-05-05T19:51:22.948Z,14.91
2023-05-05T19:53:51.827Z,14.86
2023-05-05T19:56:18.470Z,14.80
2023-05-05T19:59:02.387Z,14.77
2023-05-05T20:01:29.517Z,14.72
2023-05-05T20:03:57.012Z,14.62
2023-05-05T20:06:27.147Z,14.53
2023-05-05T20:08:56.166Z,14.51
2023-05-05T20:11:23.030Z,14.53
2023-05-05T20:13:50.302Z,14.49
2023-05-05T20:16:17.026Z,14.43
2023-05-05T20:18:46.533Z,14.41
2023-05-05T20:21:13.729Z,14.32
2023-05-05T20:23:40.551Z,14.34
2023-05-05T20:26:07.744Z,14.34
2023-05-05T20:28:39.704Z,13.97
2023-05-05T20:31:07.122Z,14.27
2023-05-05T20:33:34.236Z,14.22
2023-05-05T20:36:01.161Z,14.16
2023-05-05T20:38:27.795Z,14.12
2023-05-05T20:40:54.423Z,14.08
2023-05-05T20:43:21.191Z,14.05
2023-05-05T20:45:50.108Z,14.03
2023-05-05T20:48:16.852Z,13.94
2023-05-05T20:50:43.731Z,13.98
2023-05-05T20:53:12.018Z,13.95
2023-05-05T20:55:38.613Z,13.92
2023-05-05T20:58:07.434Z,13.90
2023-05-05T21:00:39.073Z,13.85
2023-05-05T21:03:08.161Z,13.83
2023-05-05T21:05:36.007Z,13.75
2023-05-05T21:08:02.753Z,13.68
2023-05-05T21:10:29.527Z,13.62
2023-05-05T21:12:56.306Z,13.65
2023-05-05T21:15:25.342Z,13.63
2023-05-05T21:17:51.980Z,13.60
2023-05-05T21:20:21.160Z,13.61
2023-05-05T21:22:47.888Z,13.61
2023-05-05T21:25:17.380Z,13.57
2023-05-05T21:27:49.235Z,13.60
2023-05-05T21:30:16.800Z,13.59
2023-05-05T21:32:44.112Z,13.61
2023-05-05T21:35:10.860Z,13.61
2023-05-05T21:37:39.122Z,13.64
2023-05-05T21:40:13.450Z,13.66
2023-05-05T21:42:43.559Z,13.67
2023-05-05T21:45:11.456Z,13.61
2023-05-05T21:47:40.378Z,13.68
2023-05-05T21:50:08.019Z,13.71
2023-05-05T21:52:37.464Z,13.75
2023-05-05T21:55:06.787Z,13.79
2023-05-05T21:57:33.586Z,13.78
2023-05-05T22:00:00.264Z,13.78
2023-05-05T22:02:26.893Z,13.78
2023-05-05T22:04:56.041Z,13.78
2023-05-05T22:07:22.686Z,13.85
2023-05-05T22:09:49.231Z,13.89
2023-05-05T22:12:16.392Z,13.90
2023-05-05T22:14:43.265Z,13.89
2023-05-05T22:17:09.925Z,13.94
2023-05-05T22:19:36.499Z,13.93
2023-05-05T22:22:03.341Z,13.97
2023-05-05T22:24:30.053Z,13.85
2023-05-05T22:26:57.420Z,14.01
2023-05-05T22:29:25.179Z,14.03
2023-05-05T22:31:54.183Z,13.92
2023-05-05T22:34:23.932Z,14.05
2023-05-05T22:36:50.518Z,14.05
2023-05-05T22:39:18.540Z,14.04
2023-05-05T22:41:45.173Z,14.01
2023-05-05T22:44:11.798Z,13.94
2023-05-05T22:46:38.513Z,13.95
2023-05-05T22:49:06.516Z,13.87
2023-05-05T22:51:33.342Z,13.64
2023-05-05T22:54:02.450Z,13.75
2023-05-05T22:56:29.158Z,13.83
2023-05-05T22:58:56.088Z,13.79
2023-05-05T23:01:23.047Z,13.77
2023-05-05T23:03:49.747Z,13.68
2023-05-05T23:06:16.495Z,13.74
2023-05-05T23:08:45.616Z,13.72
2023-05-05T23:11:14.303Z,13.68
2023-05-05T23:13:41.114Z,13.45
2023-05-05T23:16:07.876Z,13.57
2023-05-05T23:18:36.337Z,13.61
2023-05-05T23:21:02.935Z,13.59
2023-05-05T23:23:30.037Z,13.55
2023-05-05T23:25:58.839Z,13.51
2023-05-05T23:28:25.456Z,13.29
2023-05-05T23:30:52.053Z,13.35
2023-05-05T23:33:21.013Z,13.39
2023-05-05T23:35:47.941Z,13.34
2023-05-05T23:38:14.671Z,13.29
2023-05-05T23:40:41.372Z,13.31
2023-05-05T23:43:11.984Z,13.26
2023-05-05T23:45:38.696Z,13.22
2023-05-05T23:48:05.917Z,13.17
2023-05-05T23:50:32.583Z,13.15
2023-05-05T23:53:01.775Z,13.05
2023-05-05T23:55:28.531Z,13.05
2023-05-05T23:57:57.529Z,13.02
